sensor_id;sensor_type;location;lat;lon;timestamp;P1;durP1;ratioP1;P2;durP2;ratioP2
60722;SDS011;46574;52.818;6.516;2023-02-28T00:00:44;5.47;;;3.95;;
60722;SDS011;46574;52.818;6.516;2023-02-28T00:03:09;6.72;;;4.10;;
60722;SDS011;46574;52.818;6.516;2023-02-28T00:05:35;6.32;;;4.07;;
60722;SDS011;46574;52.818;6.516;2023-02-28T00:08:01;5.45;;;3.53;;
60722;SDS011;46574;52.818;6.516;2023-02-28T00:10:28;4.28;;;3.70;;
60722;SDS011;46574;52.818;6.516;2023-02-28T00:12:55;6.03;;;4.15;;
60722;SDS011;46574;52.818;6.516;2023-02-28T00:15:26;5.32;;;3.58;;
60722;SDS011;46574;52.818;6.516;2023-02-28T00:17:51;5.25;;;3.78;;
60722;SDS011;46574;52.818;6.516;2023-02-28T00:20:17;7.18;;;3.47;;
60722;SDS011;46574;52.818;6.516;2023-02-28T00:22:45;7.30;;;4.03;;
60722;SDS011;46574;52.818;6.516;2023-02-28T00:25:13;5.88;;;3.75;;
60722;SDS011;46574;52.818;6.516;2023-02-28T00:27:40;5.33;;;3.60;;
60722;SDS011;46574;52.818;6.516;2023-02-28T00:30:08;6.22;;;3.70;;
60722;SDS011;46574;52.818;6.516;2023-02-28T00:32:35;6.28;;;4.00;;
60722;SDS011;46574;52.818;6.516;2023-02-28T00:35:02;7.10;;;4.20;;
60722;SDS011;46574;52.818;6.516;2023-02-28T00:37:27;6.43;;;3.92;;
60722;SDS011;46574;52.818;6.516;2023-02-28T00:39:53;5.53;;;4.25;;
60722;SDS011;46574;52.818;6.516;2023-02-28T00:42:19;6.28;;;4.30;;
60722;SDS011;46574;52.818;6.516;2023-02-28T00:44:44;6.70;;;4.20;;
60722;SDS011;46574;52.818;6.516;2023-02-28T00:47:10;7.32;;;4.15;;
60722;SDS011;46574;52.818;6.516;2023-02-28T00:49:35;7.03;;;4.22;;
60722;SDS011;46574;52.818;6.516;2023-02-28T00:52:01;7.22;;;4.75;;
60722;SDS011;46574;52.818;6.516;2023-02-28T00:54:27;8.07;;;3.97;;
60722;SDS011;46574;52.818;6.516;2023-02-28T00:56:53;7.20;;;4.30;;
60722;SDS011;46574;52.818;6.516;2023-02-28T00:59:18;6.57;;;4.18;;
60722;SDS011;46574;52.818;6.516;2023-02-28T01:01:45;5.47;;;4.13;;
60722;SDS011;46574;52.818;6.516;2023-02-28T01:04:11;4.57;;;3.28;;
60722;SDS011;46574;52.818;6.516;2023-02-28T01:06:37;6.82;;;3.58;;
60722;SDS011;46574;52.818;6.516;2023-02-28T01:09:04;6.13;;;3.80;;
60722;SDS011;46574;52.818;6.516;2023-02-28T01:11:31;4.90;;;3.97;;
60722;SDS011;46574;52.818;6.516;2023-02-28T01:13:57;5.43;;;4.35;;
60722;SDS011;46574;52.818;6.516;2023-02-28T01:16:24;7.57;;;3.80;;
60722;SDS011;46574;52.818;6.516;2023-02-28T01:18:49;4.80;;;3.65;;
60722;SDS011;46574;52.818;6.516;2023-02-28T01:21:16;5.93;;;4.15;;
60722;SDS011;46574;52.818;6.516;2023-02-28T01:23:44;8.55;;;4.63;;
60722;SDS011;46574;52.818;6.516;2023-02-28T01:26:11;6.90;;;4.40;;
60722;SDS011;46574;52.818;6.516;2023-02-28T01:28:44;7.47;;;4.15;;
60722;SDS011;46574;52.818;6.516;2023-02-28T01:31:10;8.68;;;4.78;;
60722;SDS011;46574;52.818;6.516;2023-02-28T01:33:37;6.07;;;4.10;;
60722;SDS011;46574;52.818;6.516;2023-02-28T01:36:04;7.25;;;4.53;;
60722;SDS011;46574;52.818;6.516;2023-02-28T01:38:38;4.72;;;4.05;;
60722;SDS011;46574;52.818;6.516;2023-02-28T01:41:04;5.95;;;4.25;;
60722;SDS011;46574;52.818;6.516;2023-02-28T01:43:32;5.68;;;4.38;;
60722;SDS011;46574;52.818;6.516;2023-02-28T01:46:17;6.47;;;4.20;;
60722;SDS011;46574;52.818;6.516;2023-02-28T01:48:45;7.80;;;5.22;;
60722;SDS011;46574;52.818;6.516;2023-02-28T01:51:17;6.50;;;4.47;;
60722;SDS011;46574;52.818;6.516;2023-02-28T01:53:58;5.05;;;4.03;;
60722;SDS011;46574;52.818;6.516;2023-02-28T01:56:29;4.93;;;4.18;;
60722;SDS011;46574;52.818;6.516;2023-02-28T01:58:58;5.32;;;4.50;;
60722;SDS011;46574;52.818;6.516;2023-02-28T02:01:25;6.45;;;4.20;;
60722;SDS011;46574;52.818;6.516;2023-02-28T02:03:55;4.82;;;4.28;;
60722;SDS011;46574;52.818;6.516;2023-02-28T02:06:34;3.65;;;3.35;;
60722;SDS011;46574;52.818;6.516;2023-02-28T02:09:04;5.18;;;3.55;;
60722;SDS011;46574;52.818;6.516;2023-02-28T02:11:29;6.00;;;4.13;;
60722;SDS011;46574;52.818;6.516;2023-02-28T02:14:18;4.50;;;3.20;;
60722;SDS011;46574;52.818;6.516;2023-02-28T02:17:26;6.30;;;3.90;;
60722;SDS011;46574;52.818;6.516;2023-02-28T02:25:56;5.07;;;3.20;;
60722;SDS011;46574;52.818;6.516;2023-02-28T02:29:05;4.43;;;3.17;;
60722;SDS011;46574;52.818;6.516;2023-02-28T02:38:04;3.63;;;3.15;;
60722;SDS011;46574;52.818;6.516;2023-02-28T02:40:16;5.72;;;4.15;;
60722;SDS011;46574;52.818;6.516;2023-02-28T02:42:47;4.25;;;3.63;;
60722;SDS011;46574;52.818;6.516;2023-02-28T02:47:53;7.18;;;4.22;;
60722;SDS011;46574;52.818;6.516;2023-02-28T02:50:32;5.53;;;3.33;;
60722;SDS011;46574;52.818;6.516;2023-02-28T02:53:02;5.68;;;3.80;;
60722;SDS011;46574;52.818;6.516;2023-02-28T02:55:31;5.50;;;4.00;;
60722;SDS011;46574;52.818;6.516;2023-02-28T03:00:30;5.35;;;4.63;;
60722;SDS011;46574;52.818;6.516;2023-02-28T03:03:00;7.75;;;4.63;;
60722;SDS011;46574;52.818;6.516;2023-02-28T03:05:35;7.32;;;4.55;;
60722;SDS011;46574;52.818;6.516;2023-02-28T03:08:09;7.47;;;5.28;;
60722;SDS011;46574;52.818;6.516;2023-02-28T03:10:36;7.55;;;5.50;;
60722;SDS011;46574;52.818;6.516;2023-02-28T03:13:23;9.75;;;6.63;;
60722;SDS011;46574;52.818;6.516;2023-02-28T03:18:53;11.20;;;8.18;;
60722;SDS011;46574;52.818;6.516;2023-02-28T03:21:34;16.23;;;10.00;;
60722;SDS011;46574;52.818;6.516;2023-02-28T03:24:06;11.75;;;9.15;;
60722;SDS011;46574;52.818;6.516;2023-02-28T03:26:39;10.80;;;7.70;;
60722;SDS011;46574;52.818;6.516;2023-02-28T03:32:24;13.90;;;9.10;;
60722;SDS011;46574;52.818;6.516;2023-02-28T03:37:40;15.30;;;10.57;;
60722;SDS011;46574;52.818;6.516;2023-02-28T03:40:10;13.98;;;10.45;;
60722;SDS011;46574;52.818;6.516;2023-02-28T03:42:42;15.63;;;10.68;;
60722;SDS011;46574;52.818;6.516;2023-02-28T03:45:19;18.00;;;10.57;;
60722;SDS011;46574;52.818;6.516;2023-02-28T03:47:51;15.45;;;10.18;;
60722;SDS011;46574;52.818;6.516;2023-02-28T03:50:24;15.80;;;11.40;;
60722;SDS011;46574;52.818;6.516;2023-02-28T03:52:58;14.43;;;9.38;;
60722;SDS011;46574;52.818;6.516;2023-02-28T03:55:33;17.35;;;11.68;;
60722;SDS011;46574;52.818;6.516;2023-02-28T04:01:43;17.00;;;11.10;;
60722;SDS011;46574;52.818;6.516;2023-02-28T04:03:52;18.00;;;10.65;;
60722;SDS011;46574;52.818;6.516;2023-02-28T04:06:19;19.25;;;11.95;;
60722;SDS011;46574;52.818;6.516;2023-02-28T04:08:47;15.05;;;10.85;;
60722;SDS011;46574;52.818;6.516;2023-02-28T04:13:42;17.13;;;11.75;;
60722;SDS011;46574;52.818;6.516;2023-02-28T04:16:08;14.40;;;10.70;;
60722;SDS011;46574;52.818;6.516;2023-02-28T04:21:03;13.43;;;10.02;;
60722;SDS011;46574;52.818;6.516;2023-02-28T04:23:30;17.17;;;10.63;;
60722;SDS011;46574;52.818;6.516;2023-02-28T04:25:55;16.20;;;10.85;;
60722;SDS011;46574;52.818;6.516;2023-02-28T04:28:21;19.85;;;12.95;;
60722;SDS011;46574;52.818;6.516;2023-02-28T04:30:47;22.05;;;13.43;;
60722;SDS011;46574;52.818;6.516;2023-02-28T04:33:18;17.02;;;11.27;;
60722;SDS011;46574;52.818;6.516;2023-02-28T04:35:44;18.55;;;12.68;;
60722;SDS011;46574;52.818;6.516;2023-02-28T04:38:09;19.60;;;12.70;;
60722;SDS011;46574;52.818;6.516;2023-02-28T04:40:35;17.20;;;11.43;;
60722;SDS011;46574;52.818;6.516;2023-02-28T04:43:01;21.48;;;13.98;;
60722;SDS011;46574;52.818;6.516;2023-02-28T04:45:28;12.50;;;9.95;;
60722;SDS011;46574;52.818;6.516;2023-02-28T04:47:57;16.73;;;11.50;;
60722;SDS011;46574;52.818;6.516;2023-02-28T04:50:23;22.30;;;13.73;;
60722;SDS011;46574;52.818;6.516;2023-02-28T04:52:49;23.58;;;13.50;;
60722;SDS011;46574;52.818;6.516;2023-02-28T04:55:14;16.40;;;11.73;;
60722;SDS011;46574;52.818;6.516;2023-02-28T04:57:40;14.77;;;10.88;;
60722;SDS011;46574;52.818;6.516;2023-02-28T05:00:08;16.30;;;10.98;;
60722;SDS011;46574;52.818;6.516;2023-02-28T05:02:36;29.13;;;14.93;;
60722;SDS011;46574;52.818;6.516;2023-02-28T05:05:03;21.60;;;13.55;;
60722;SDS011;46574;52.818;6.516;2023-02-28T05:07:29;19.75;;;13.38;;
60722;SDS011;46574;52.818;6.516;2023-02-28T05:09:55;18.02;;;13.10;;
60722;SDS011;46574;52.818;6.516;2023-02-28T05:12:20;17.73;;;12.25;;
60722;SDS011;46574;52.818;6.516;2023-02-28T05:14:46;18.48;;;12.68;;
60722;SDS011;46574;52.818;6.516;2023-02-28T05:17:11;18.35;;;12.13;;
60722;SDS011;46574;52.818;6.516;2023-02-28T05:19:37;16.63;;;11.45;;
60722;SDS011;46574;52.818;6.516;2023-02-28T05:22:02;21.65;;;13.45;;
60722;SDS011;46574;52.818;6.516;2023-02-28T05:24:29;19.92;;;12.50;;
60722;SDS011;46574;52.818;6.516;2023-02-28T05:26:55;19.77;;;12.80;;
60722;SDS011;46574;52.818;6.516;2023-02-28T05:29:21;20.77;;;13.35;;
60722;SDS011;46574;52.818;6.516;2023-02-28T05:31:47;20.67;;;13.23;;
60722;SDS011;46574;52.818;6.516;2023-02-28T05:34:12;16.67;;;12.35;;
60722;SDS011;46574;52.818;6.516;2023-02-28T05:36:40;18.08;;;11.82;;
60722;SDS011;46574;52.818;6.516;2023-02-28T05:39:06;18.10;;;12.55;;
60722;SDS011;46574;52.818;6.516;2023-02-28T05:41:38;22.80;;;14.27;;
60722;SDS011;46574;52.818;6.516;2023-02-28T05:44:04;23.58;;;14.07;;
60722;SDS011;46574;52.818;6.516;2023-02-28T05:46:30;17.40;;;11.45;;
60722;SDS011;46574;52.818;6.516;2023-02-28T05:48:55;19.27;;;12.85;;
60722;SDS011;46574;52.818;6.516;2023-02-28T05:51:22;17.58;;;12.27;;
60722;SDS011;46574;52.818;6.516;2023-02-28T05:53:48;18.02;;;12.02;;
60722;SDS011;46574;52.818;6.516;2023-02-28T05:56:14;16.27;;;11.45;;
60722;SDS011;46574;52.818;6.516;2023-02-28T05:58:40;23.08;;;14.88;;
60722;SDS011;46574;52.818;6.516;2023-02-28T06:01:22;19.55;;;13.38;;
60722;SDS011;46574;52.818;6.516;2023-02-28T06:04:05;19.47;;;12.53;;
60722;SDS011;46574;52.818;6.516;2023-02-28T06:06:32;19.55;;;12.77;;
60722;SDS011;46574;52.818;6.516;2023-02-28T06:09:02;20.80;;;13.07;;
60722;SDS011;46574;52.818;6.516;2023-02-28T06:11:29;19.08;;;12.18;;
60722;SDS011;46574;52.818;6.516;2023-02-28T06:13:55;19.50;;;12.77;;
60722;SDS011;46574;52.818;6.516;2023-02-28T06:16:23;21.27;;;13.73;;
60722;SDS011;46574;52.818;6.516;2023-02-28T06:18:49;18.52;;;11.27;;
60722;SDS011;46574;52.818;6.516;2023-02-28T06:21:14;19.02;;;11.27;;
60722;SDS011;46574;52.818;6.516;2023-02-28T06:23:40;23.52;;;13.60;;
60722;SDS011;46574;52.818;6.516;2023-02-28T06:26:06;23.33;;;14.45;;
60722;SDS011;46574;52.818;6.516;2023-02-28T06:28:31;20.05;;;13.52;;
60722;SDS011;46574;52.818;6.516;2023-02-28T06:30:57;20.52;;;13.52;;
60722;SDS011;46574;52.818;6.516;2023-02-28T06:33:23;15.52;;;11.40;;
60722;SDS011;46574;52.818;6.516;2023-02-28T06:35:52;15.77;;;10.85;;
60722;SDS011;46574;52.818;6.516;2023-02-28T06:40:43;17.65;;;12.15;;
60722;SDS011;46574;52.818;6.516;2023-02-28T06:43:09;18.70;;;12.20;;
60722;SDS011;46574;52.818;6.516;2023-02-28T06:45:41;18.17;;;11.82;;
60722;SDS011;46574;52.818;6.516;2023-02-28T06:48:08;18.73;;;13.00;;
60722;SDS011;46574;52.818;6.516;2023-02-28T06:50:34;20.55;;;13.13;;
60722;SDS011;46574;52.818;6.516;2023-02-28T06:52:59;17.33;;;12.00;;
60722;SDS011;46574;52.818;6.516;2023-02-28T06:55:25;18.67;;;13.13;;
60722;SDS011;46574;52.818;6.516;2023-02-28T06:57:51;18.00;;;12.65;;
60722;SDS011;46574;52.818;6.516;2023-02-28T07:00:16;20.20;;;13.45;;
60722;SDS011;46574;52.818;6.516;2023-02-28T07:02:43;19.58;;;13.10;;
60722;SDS011;46574;52.818;6.516;2023-02-28T07:05:08;20.70;;;14.77;;
60722;SDS011;46574;52.818;6.516;2023-02-28T07:07:34;20.58;;;13.43;;
60722;SDS011;46574;52.818;6.516;2023-02-28T07:10:01;22.20;;;14.68;;
60722;SDS011;46574;52.818;6.516;2023-02-28T07:12:27;18.63;;;12.05;;
60722;SDS011;46574;52.818;6.516;2023-02-28T07:14:53;22.63;;;14.38;;
60722;SDS011;46574;52.818;6.516;2023-02-28T07:17:20;21.02;;;14.05;;
60722;SDS011;46574;52.818;6.516;2023-02-28T07:19:46;19.13;;;12.90;;
60722;SDS011;46574;52.818;6.516;2023-02-28T07:22:12;16.40;;;12.60;;
60722;SDS011;46574;52.818;6.516;2023-02-28T07:24:37;19.00;;;12.88;;
60722;SDS011;46574;52.818;6.516;2023-02-28T07:27:03;21.65;;;13.85;;
60722;SDS011;46574;52.818;6.516;2023-02-28T07:29:29;23.55;;;15.10;;
60722;SDS011;46574;52.818;6.516;2023-02-28T07:31:55;18.25;;;12.23;;
60722;SDS011;46574;52.818;6.516;2023-02-28T07:34:21;19.15;;;12.52;;
60722;SDS011;46574;52.818;6.516;2023-02-28T07:36:47;18.35;;;13.32;;
60722;SDS011;46574;52.818;6.516;2023-02-28T07:39:12;19.10;;;12.40;;
60722;SDS011;46574;52.818;6.516;2023-02-28T07:41:38;18.27;;;13.75;;
60722;SDS011;46574;52.818;6.516;2023-02-28T07:44:11;20.50;;;13.55;;
60722;SDS011;46574;52.818;6.516;2023-02-28T07:46:37;19.83;;;13.93;;
60722;SDS011;46574;52.818;6.516;2023-02-28T07:49:03;18.98;;;13.48;;
60722;SDS011;46574;52.818;6.516;2023-02-28T07:51:30;23.55;;;17.85;;
60722;SDS011;46574;52.818;6.516;2023-02-28T07:53:56;23.88;;;18.98;;
60722;SDS011;46574;52.818;6.516;2023-02-28T07:56:22;20.63;;;15.57;;
60722;SDS011;46574;52.818;6.516;2023-02-28T07:58:48;19.50;;;13.88;;
60722;SDS011;46574;52.818;6.516;2023-02-28T08:01:14;19.00;;;13.25;;
60722;SDS011;46574;52.818;6.516;2023-02-28T08:03:40;18.10;;;12.82;;
60722;SDS011;46574;52.818;6.516;2023-02-28T08:06:07;17.77;;;11.95;;
60722;SDS011;46574;52.818;6.516;2023-02-28T08:08:40;20.45;;;13.35;;
60722;SDS011;46574;52.818;6.516;2023-02-28T08:11:05;20.50;;;12.82;;
60722;SDS011;46574;52.818;6.516;2023-02-28T08:13:31;18.55;;;13.15;;
60722;SDS011;46574;52.818;6.516;2023-02-28T08:15:57;18.40;;;12.43;;
60722;SDS011;46574;52.818;6.516;2023-02-28T08:18:22;19.15;;;12.60;;
60722;SDS011;46574;52.818;6.516;2023-02-28T08:20:48;16.80;;;12.25;;
60722;SDS011;46574;52.818;6.516;2023-02-28T08:23:14;16.95;;;12.75;;
60722;SDS011;46574;52.818;6.516;2023-02-28T08:25:40;17.23;;;12.48;;
60722;SDS011;46574;52.818;6.516;2023-02-28T08:28:06;19.67;;;13.60;;
60722;SDS011;46574;52.818;6.516;2023-02-28T08:30:31;16.40;;;12.10;;
60722;SDS011;46574;52.818;6.516;2023-02-28T08:32:57;17.05;;;12.80;;
60722;SDS011;46574;52.818;6.516;2023-02-28T08:35:23;17.75;;;12.10;;
60722;SDS011;46574;52.818;6.516;2023-02-28T08:37:48;14.48;;;11.18;;
60722;SDS011;46574;52.818;6.516;2023-02-28T08:40:15;16.50;;;12.13;;
60722;SDS011;46574;52.818;6.516;2023-02-28T08:42:43;19.03;;;12.77;;
60722;SDS011;46574;52.818;6.516;2023-02-28T08:45:09;17.42;;;13.00;;
60722;SDS011;46574;52.818;6.516;2023-02-28T08:47:36;15.88;;;12.23;;
60722;SDS011;46574;52.818;6.516;2023-02-28T08:50:01;17.55;;;12.05;;
60722;SDS011;46574;52.818;6.516;2023-02-28T08:52:28;19.55;;;12.65;;
60722;SDS011;46574;52.818;6.516;2023-02-28T08:54:54;15.88;;;11.93;;
60722;SDS011;46574;52.818;6.516;2023-02-28T08:57:20;16.42;;;12.63;;
60722;SDS011;46574;52.818;6.516;2023-02-28T08:59:45;14.73;;;10.77;;
60722;SDS011;46574;52.818;6.516;2023-02-28T09:02:14;15.30;;;11.98;;
60722;SDS011;46574;52.818;6.516;2023-02-28T09:04:40;16.58;;;12.70;;
60722;SDS011;46574;52.818;6.516;2023-02-28T09:07:06;15.18;;;12.02;;
60722;SDS011;46574;52.818;6.516;2023-02-28T09:09:32;16.65;;;12.60;;
60722;SDS011;46574;52.818;6.516;2023-02-28T09:11:58;15.32;;;11.05;;
60722;SDS011;46574;52.818;6.516;2023-02-28T09:14:24;12.10;;;9.02;;
60722;SDS011;46574;52.818;6.516;2023-02-28T09:16:50;12.25;;;10.30;;
60722;SDS011;46574;52.818;6.516;2023-02-28T09:19:15;11.88;;;8.95;;
60722;SDS011;46574;52.818;6.516;2023-02-28T09:21:41;13.43;;;10.13;;
60722;SDS011;46574;52.818;6.516;2023-02-28T09:24:07;15.75;;;11.73;;
60722;SDS011;46574;52.818;6.516;2023-02-28T09:26:33;11.50;;;9.10;;
60722;SDS011;46574;52.818;6.516;2023-02-28T09:28:59;10.98;;;8.85;;
60722;SDS011;46574;52.818;6.516;2023-02-28T09:31:27;10.48;;;8.15;;
60722;SDS011;46574;52.818;6.516;2023-02-28T09:33:54;8.63;;;7.32;;
60722;SDS011;46574;52.818;6.516;2023-02-28T09:36:22;11.23;;;7.93;;
60722;SDS011;46574;52.818;6.516;2023-02-28T09:38:49;10.60;;;8.90;;
60722;SDS011;46574;52.818;6.516;2023-02-28T09:41:23;9.85;;;8.30;;
60722;SDS011;46574;52.818;6.516;2023-02-28T09:43:54;9.30;;;8.10;;
60722;SDS011;46574;52.818;6.516;2023-02-28T09:46:27;11.80;;;7.80;;
60722;SDS011;46574;52.818;6.516;2023-02-28T09:48:59;10.70;;;8.40;;
60722;SDS011;46574;52.818;6.516;2023-02-28T09:54:23;9.57;;;8.45;;
60722;SDS011;46574;52.818;6.516;2023-02-28T09:57:05;8.18;;;6.88;;
60722;SDS011;46574;52.818;6.516;2023-02-28T10:05:00;8.90;;;6.85;;
60722;SDS011;46574;52.818;6.516;2023-02-28T10:07:44;8.55;;;7.55;;
60722;SDS011;46574;52.818;6.516;2023-02-28T10:10:31;10.18;;;8.10;;
60722;SDS011;46574;52.818;6.516;2023-02-28T10:13:02;7.82;;;6.90;;
60722;SDS011;46574;52.818;6.516;2023-02-28T10:15:35;8.30;;;6.22;;
60722;SDS011;46574;52.818;6.516;2023-02-28T10:18:03;6.88;;;6.18;;
60722;SDS011;46574;52.818;6.516;2023-02-28T10:20:35;7.30;;;4.90;;
60722;SDS011;46574;52.818;6.516;2023-02-28T10:23:09;6.65;;;5.43;;
60722;SDS011;46574;52.818;6.516;2023-02-28T10:25:39;6.30;;;5.70;;
60722;SDS011;46574;52.818;6.516;2023-02-28T10:28:12;5.55;;;5.07;;
60722;SDS011;46574;52.818;6.516;2023-02-28T10:30:41;5.13;;;4.63;;
60722;SDS011;46574;52.818;6.516;2023-02-28T10:33:25;5.55;;;4.25;;
60722;SDS011;46574;52.818;6.516;2023-02-28T10:35:57;5.57;;;3.80;;
60722;SDS011;46574;52.818;6.516;2023-02-28T10:38:28;4.68;;;4.28;;
60722;SDS011;46574;52.818;6.516;2023-02-28T10:41:09;6.20;;;4.40;;
60722;SDS011;46574;52.818;6.516;2023-02-28T10:43:37;5.00;;;4.05;;
60722;SDS011;46574;52.818;6.516;2023-02-28T10:48:31;5.25;;;3.00;;
60722;SDS011;46574;52.818;6.516;2023-02-28T10:51:01;3.80;;;3.40;;
60722;SDS011;46574;52.818;6.516;2023-02-28T10:56:18;6.07;;;4.00;;
60722;SDS011;46574;52.818;6.516;2023-02-28T11:01:16;4.57;;;3.60;;
60722;SDS011;46574;52.818;6.516;2023-02-28T11:03:43;3.55;;;3.22;;
60722;SDS011;46574;52.818;6.516;2023-02-28T11:06:17;3.95;;;3.55;;
60722;SDS011;46574;52.818;6.516;2023-02-28T11:08:57;4.75;;;3.78;;
60722;SDS011;46574;52.818;6.516;2023-02-28T11:11:41;4.72;;;3.53;;
60722;SDS011;46574;52.818;6.516;2023-02-28T11:16:52;3.85;;;3.55;;
60722;SDS011;46574;52.818;6.516;2023-02-28T11:19:45;3.95;;;3.42;;
60722;SDS011;46574;52.818;6.516;2023-02-28T11:22:10;3.97;;;3.13;;
60722;SDS011;46574;52.818;6.516;2023-02-28T11:24:37;3.42;;;3.20;;
60722;SDS011;46574;52.818;6.516;2023-02-28T11:29:56;3.95;;;3.65;;
60722;SDS011;46574;52.818;6.516;2023-02-28T11:32:24;3.95;;;3.65;;
60722;SDS011;46574;52.818;6.516;2023-02-28T11:35:55;4.60;;;4.10;;
60722;SDS011;46574;52.818;6.516;2023-02-28T11:37:51;4.40;;;4.00;;
60722;SDS011;46574;52.818;6.516;2023-02-28T11:41:05;3.72;;;3.42;;
60722;SDS011;46574;52.818;6.516;2023-02-28T11:51:13;3.97;;;3.67;;
60722;SDS011;46574;52.818;6.516;2023-02-28T11:56:43;4.15;;;3.75;;
60722;SDS011;46574;52.818;6.516;2023-02-28T11:59:24;3.72;;;3.42;;
60722;SDS011;46574;52.818;6.516;2023-02-28T12:02:04;3.58;;;3.28;;
60722;SDS011;46574;52.818;6.516;2023-02-28T12:05:27;3.67;;;3.38;;
60722;SDS011;46574;52.818;6.516;2023-02-28T12:11:09;4.32;;;3.92;;
60722;SDS011;46574;52.818;6.516;2023-02-28T12:16:48;4.22;;;3.83;;
60722;SDS011;46574;52.818;6.516;2023-02-28T12:27:08;3.40;;;3.10;;
60722;SDS011;46574;52.818;6.516;2023-02-28T12:29:58;4.38;;;3.65;;
60722;SDS011;46574;52.818;6.516;2023-02-28T12:32:27;4.00;;;3.60;;
60722;SDS011;46574;52.818;6.516;2023-02-28T12:35:01;6.25;;;3.70;;
60722;SDS011;46574;52.818;6.516;2023-02-28T12:37:36;10.15;;;4.68;;
60722;SDS011;46574;52.818;6.516;2023-02-28T12:40:28;5.75;;;3.60;;
60722;SDS011;46574;52.818;6.516;2023-02-28T12:42:57;3.83;;;3.08;;
60722;SDS011;46574;52.818;6.516;2023-02-28T12:46:09;4.70;;;3.58;;
60722;SDS011;46574;52.818;6.516;2023-02-28T12:50:45;4.22;;;3.83;;
60722;SDS011;46574;52.818;6.516;2023-02-28T12:53:32;6.00;;;4.32;;
60722;SDS011;46574;52.818;6.516;2023-02-28T12:56:14;6.65;;;4.00;;
60722;SDS011;46574;52.818;6.516;2023-02-28T13:10:00;3.60;;;3.30;;
60722;SDS011;46574;52.818;6.516;2023-02-28T13:12:29;3.85;;;3.45;;
60722;SDS011;46574;52.818;6.516;2023-02-28T13:17:56;5.82;;;3.90;;
60722;SDS011;46574;52.818;6.516;2023-02-28T13:20:29;3.60;;;2.95;;
60722;SDS011;46574;52.818;6.516;2023-02-28T13:23:01;3.00;;;2.80;;
60722;SDS011;46574;52.818;6.516;2023-02-28T13:27:59;3.70;;;3.40;;
60722;SDS011;46574;52.818;6.516;2023-02-28T13:35:45;4.15;;;3.22;;
60722;SDS011;46574;52.818;6.516;2023-02-28T13:38:22;4.47;;;3.45;;
60722;SDS011;46574;52.818;6.516;2023-02-28T13:40:50;4.45;;;3.22;;
60722;SDS011;46574;52.818;6.516;2023-02-28T13:43:16;5.72;;;3.90;;
60722;SDS011;46574;52.818;6.516;2023-02-28T13:48:34;3.80;;;3.50;;
60722;SDS011;46574;52.818;6.516;2023-02-28T13:51:00;3.70;;;3.40;;
60722;SDS011;46574;52.818;6.516;2023-02-28T13:54:03;3.15;;;2.95;;
60722;SDS011;46574;52.818;6.516;2023-02-28T13:56:45;4.80;;;4.32;;
60722;SDS011;46574;52.818;6.516;2023-02-28T13:59:50;4.10;;;3.65;;
60722;SDS011;46574;52.818;6.516;2023-02-28T14:02:41;3.50;;;3.15;;
60722;SDS011;46574;52.818;6.516;2023-02-28T14:05:19;3.75;;;3.42;;
60722;SDS011;46574;52.818;6.516;2023-02-28T14:07:56;3.58;;;3.28;;
60722;SDS011;46574;52.818;6.516;2023-02-28T14:12:55;3.83;;;3.53;;
60722;SDS011;46574;52.818;6.516;2023-02-28T14:15:26;3.55;;;3.25;;
60722;SDS011;46574;52.818;6.516;2023-02-28T14:17:55;3.80;;;3.50;;
60722;SDS011;46574;52.818;6.516;2023-02-28T14:20:24;3.77;;;3.47;;
60722;SDS011;46574;52.818;6.516;2023-02-28T14:23:06;3.65;;;3.40;;
60722;SDS011;46574;52.818;6.516;2023-02-28T14:25:44;4.70;;;3.80;;
60722;SDS011;46574;52.818;6.516;2023-02-28T14:31:15;4.78;;;3.70;;
60722;SDS011;46574;52.818;6.516;2023-02-28T14:36:42;3.92;;;3.50;;
60722;SDS011;46574;52.818;6.516;2023-02-28T14:39:13;3.92;;;3.45;;
60722;SDS011;46574;52.818;6.516;2023-02-28T14:41:42;3.50;;;3.20;;
60722;SDS011;46574;52.818;6.516;2023-02-28T14:44:16;4.13;;;3.80;;
60722;SDS011;46574;52.818;6.516;2023-02-28T14:46:53;3.80;;;3.50;;
60722;SDS011;46574;52.818;6.516;2023-02-28T14:49:32;4.15;;;3.75;;
60722;SDS011;46574;52.818;6.516;2023-02-28T14:52:12;5.38;;;4.10;;
60722;SDS011;46574;52.818;6.516;2023-02-28T14:54:42;4.43;;;4.10;;
60722;SDS011;46574;52.818;6.516;2023-02-28T14:57:22;4.70;;;4.30;;
60722;SDS011;46574;52.818;6.516;2023-02-28T14:59:57;4.20;;;3.85;;
60722;SDS011;46574;52.818;6.516;2023-02-28T15:02:37;5.53;;;4.20;;
60722;SDS011;46574;52.818;6.516;2023-02-28T15:05:47;4.22;;;3.90;;
60722;SDS011;46574;52.818;6.516;2023-02-28T15:08:05;4.18;;;3.78;;
60722;SDS011;46574;52.818;6.516;2023-02-28T15:10:36;5.00;;;4.60;;
60722;SDS011;46574;52.818;6.516;2023-02-28T15:13:05;5.40;;;4.97;;
60722;SDS011;46574;52.818;6.516;2023-02-28T15:15:39;4.82;;;4.45;;
60722;SDS011;46574;52.818;6.516;2023-02-28T15:18:22;5.18;;;4.78;;
60722;SDS011;46574;52.818;6.516;2023-02-28T15:21:05;5.28;;;4.78;;
60722;SDS011;46574;52.818;6.516;2023-02-28T15:23:33;5.38;;;4.95;;
60722;SDS011;46574;52.818;6.516;2023-02-28T15:26:01;5.63;;;5.13;;
60722;SDS011;46574;52.818;6.516;2023-02-28T15:28:27;5.13;;;4.72;;
60722;SDS011;46574;52.818;6.516;2023-02-28T15:31:25;4.20;;;3.80;;
60722;SDS011;46574;52.818;6.516;2023-02-28T15:33:54;4.70;;;4.30;;
60722;SDS011;46574;52.818;6.516;2023-02-28T15:36:24;4.38;;;4.07;;
60722;SDS011;46574;52.818;6.516;2023-02-28T15:38:53;4.25;;;3.85;;
60722;SDS011;46574;52.818;6.516;2023-02-28T15:41:26;4.25;;;3.85;;
60722;SDS011;46574;52.818;6.516;2023-02-28T15:47:03;5.55;;;4.30;;
60722;SDS011;46574;52.818;6.516;2023-02-28T15:49:52;6.53;;;4.57;;
60722;SDS011;46574;52.818;6.516;2023-02-28T15:52:39;5.60;;;5.00;;
60722;SDS011;46574;52.818;6.516;2023-02-28T15:55:10;5.03;;;4.65;;
60722;SDS011;46574;52.818;6.516;2023-02-28T15:57:38;5.00;;;4.57;;
60722;SDS011;46574;52.818;6.516;2023-02-28T16:00:05;4.63;;;4.28;;
60722;SDS011;46574;52.818;6.516;2023-02-28T16:02:37;5.05;;;4.63;;
60722;SDS011;46574;52.818;6.516;2023-02-28T16:07:36;5.50;;;4.63;;
60722;SDS011;46574;52.818;6.516;2023-02-28T16:10:10;6.07;;;4.40;;
60722;SDS011;46574;52.818;6.516;2023-02-28T16:12:39;4.78;;;4.07;;
60722;SDS011;46574;52.818;6.516;2023-02-28T16:15:09;5.65;;;4.50;;
60722;SDS011;46574;52.818;6.516;2023-02-28T16:17:46;4.72;;;4.32;;
60722;SDS011;46574;52.818;6.516;2023-02-28T16:20:13;5.22;;;4.75;;
60722;SDS011;46574;52.818;6.516;2023-02-28T16:22:40;6.63;;;5.00;;
60722;SDS011;46574;52.818;6.516;2023-02-28T16:25:08;4.80;;;4.40;;
60722;SDS011;46574;52.818;6.516;2023-02-28T16:27:41;5.60;;;4.65;;
60722;SDS011;46574;52.818;6.516;2023-02-28T16:30:19;5.25;;;4.85;;
60722;SDS011;46574;52.818;6.516;2023-02-28T16:32:47;5.35;;;4.95;;
60722;SDS011;46574;52.818;6.516;2023-02-28T16:35:13;5.65;;;5.18;;
60722;SDS011;46574;52.818;6.516;2023-02-28T16:37:39;5.95;;;5.28;;
60722;SDS011;46574;52.818;6.516;2023-02-28T16:40:05;5.40;;;4.90;;
60722;SDS011;46574;52.818;6.516;2023-02-28T16:42:32;5.10;;;4.60;;
60722;SDS011;46574;52.818;6.516;2023-02-28T16:44:58;5.47;;;4.97;;
60722;SDS011;46574;52.818;6.516;2023-02-28T16:47:24;5.28;;;4.88;;
60722;SDS011;46574;52.818;6.516;2023-02-28T16:49:51;6.65;;;5.60;;
60722;SDS011;46574;52.818;6.516;2023-02-28T16:52:17;5.53;;;5.03;;
60722;SDS011;46574;52.818;6.516;2023-02-28T16:54:43;4.90;;;4.55;;
60722;SDS011;46574;52.818;6.516;2023-02-28T16:57:17;5.22;;;4.82;;
60722;SDS011;46574;52.818;6.516;2023-02-28T16:59:46;5.10;;;4.60;;
60722;SDS011;46574;52.818;6.516;2023-02-28T17:02:13;5.57;;;5.00;;